createdAt,value
2024-05-09T00:00:06.506Z,95215.00
2024-05-09T00:01:05.058Z,95213.00
2024-05-09T00:02:05.087Z,95213.00
2024-05-09T00:03:05.085Z,95212.00
2024-05-09T00:04:05.120Z,95213.00
2024-05-09T00:05:05.214Z,95212.00
2024-05-09T00:06:05.252Z,95213.00
2024-05-09T00:07:05.043Z,95212.00
2024-05-09T00:08:05.144Z,95211.00
2024-05-09T00:09:05.049Z,95213.00
2024-05-09T00:10:07.100Z,95213.00
2024-05-09T00:11:05.231Z,95211.00
2024-05-09T00:12:05.260Z,95212.00
2024-05-09T00:13:05.307Z,95214.00
2024-05-09T00:14:05.152Z,95212.00
2024-05-09T00:15:05.048Z,95212.00
2024-05-09T00:16:05.046Z,95212.00
2024-05-09T00:17:05.079Z,95211.00
2024-05-09T00:18:06.029Z,95213.00
2024-05-09T00:19:05.207Z,95210.00
2024-05-09T00:20:11.126Z,95209.00
2024-05-09T00:21:06.182Z,95208.00
2024-05-09T00:22:05.070Z,95208.00
2024-05-09T00:23:05.120Z,95207.00
2024-05-09T00:24:05.063Z,95210.00
2024-05-09T00:25:05.055Z,95209.00
2024-05-09T00:26:05.069Z,95207.00
2024-05-09T00:27:05.054Z,95208.00
2024-05-09T00:28:05.051Z,95207.00
2024-05-09T00:29:05.080Z,95207.00
2024-05-09T00:30:07.024Z,95206.00
2024-05-09T00:31:05.056Z,95208.00
2024-05-09T00:32:05.200Z,95207.00
2024-05-09T00:33:06.200Z,95206.00
2024-05-09T00:34:05.259Z,95207.00
2024-05-09T00:35:05.094Z,95206.00
2024-05-09T00:36:05.063Z,95205.00
2024-05-09T00:37:05.082Z,95203.00
2024-05-09T00:38:05.258Z,95204.00
2024-05-09T00:39:05.067Z,95202.00
2024-05-09T00:40:07.416Z,95201.00
2024-05-09T00:41:05.099Z,95199.00
2024-05-09T00:42:05.082Z,95197.00
2024-05-09T00:43:05.053Z,95198.00
2024-05-09T00:44:05.281Z,95197.00
2024-05-09T00:45:05.073Z,95197.00
2024-05-09T00:46:05.070Z,95195.00
2024-05-09T00:47:05.200Z,95196.00
2024-05-09T00:48:05.300Z,95196.00
2024-05-09T00:49:05.183Z,95196.00
2024-05-09T00:50:07.641Z,95193.00
2024-05-09T00:51:06.082Z,95194.00
2024-05-09T00:52:05.080Z,95191.00
2024-05-09T00:53:05.202Z,95191.00
2024-05-09T00:54:05.059Z,95191.00
2024-05-09T00:55:05.061Z,95189.00
2024-05-09T00:56:05.080Z,95187.00
2024-05-09T00:57:05.069Z,95185.00
2024-05-09T00:58:05.060Z,95187.00
2024-05-09T00:59:05.098Z,95184.00
2024-05-09T01:00:07.777Z,95186.00
2024-05-09T01:01:05.092Z,95184.00
2024-05-09T01:02:05.119Z,95185.00
2024-05-09T01:03:05.337Z,95183.00
2024-05-09T01:04:05.188Z,95185.00
2024-05-09T01:05:05.165Z,95183.00
2024-05-09T01:06:05.109Z,95184.00
2024-05-09T01:07:05.096Z,95183.00
2024-05-09T01:08:05.105Z,95182.00
2024-05-09T01:09:05.075Z,95179.00
2024-05-09T01:10:09.032Z,95181.00
2024-05-09T01:11:06.133Z,95177.00
2024-05-09T01:12:05.193Z,95176.00
2024-05-09T01:13:05.325Z,95176.00
2024-05-09T01:14:05.139Z,95175.00
2024-05-09T01:15:05.083Z,95175.00
2024-05-09T01:16:05.092Z,95172.00
2024-05-09T01:17:05.152Z,95176.00
2024-05-09T01:18:05.206Z,95176.00
2024-05-09T01:19:05.269Z,95174.00
2024-05-09T01:20:06.398Z,95175.00
2024-05-09T01:21:06.125Z,95175.00
2024-05-09T01:22:05.118Z,95175.00
2024-05-09T01:23:05.140Z,95174.00
2024-05-09T01:24:05.108Z,95173.00
2024-05-09T01:25:05.097Z,95173.00
2024-05-09T01:26:05.110Z,95172.00
2024-05-09T01:27:05.139Z,95172.00
2024-05-09T01:28:05.110Z,95173.00
2024-05-09T01:29:05.163Z,95173.00
2024-05-09T01:30:09.172Z,95172.00
2024-05-09T01:31:05.100Z,95172.00
2024-05-09T01:32:05.229Z,95174.00
2024-05-09T01:33:06.268Z,95174.00
2024-05-09T01:34:05.120Z,95175.00
2024-05-09T01:35:05.137Z,95176.00
2024-05-09T01:36:05.098Z,95175.00
2024-05-09T01:37:05.123Z,95175.00
2024-05-09T01:38:05.250Z,95176.00
2024-05-09T01:39:05.106Z,95175.00
2024-05-09T01:40:07.460Z,95176.00
2024-05-09T01:41:05.150Z,95176.00
2024-05-09T01:42:05.132Z,95177.00
2024-05-09T01:43:05.110Z,95177.00
2024-05-09T01:44:05.122Z,95177.00
2024-05-09T01:45:05.121Z,95178.00
2024-05-09T01:46:05.119Z,95176.00
2024-05-09T01:47:05.174Z,95177.00
2024-05-09T01:48:05.406Z,95178.00
2024-05-09T01:49:05.245Z,95178.00
2024-05-09T01:50:08.774Z,95177.00
2024-05-09T01:51:05.158Z,95177.00
2024-05-09T01:52:05.137Z,95178.00
2024-05-09T01:53:05.166Z,95176.00
2024-05-09T01:54:05.119Z,95178.00
2024-05-09T01:55:06.694Z,95177.00
2024-05-09T01:56:05.115Z,95177.00
2024-05-09T01:57:05.205Z,95177.00
2024-05-09T01:58:05.161Z,95175.00
2024-05-09T01:59:05.172Z,95176.00
2024-05-09T02:00:07.746Z,95175.00
2024-05-09T02:01:05.156Z,95174.00
2024-05-09T02:02:05.396Z,95176.00
2024-05-09T02:03:05.275Z,95175.00
2024-05-09T02:04:05.381Z,95174.00
2024-05-09T02:05:05.324Z,95173.00
2024-05-09T02:06:05.326Z,95174.00
2024-05-09T02:07:05.122Z,95173.00
2024-05-09T02:08:05.205Z,95170.00
2024-05-09T02:09:05.119Z,95171.00
2024-05-09T02:10:13.533Z,95173.00
2024-05-09T02:11:06.222Z,95171.00
2024-05-09T02:12:05.301Z,95170.00
2024-05-09T02:13:05.122Z,95169.00
2024-05-09T02:14:05.206Z,95167.00
2024-05-09T02:15:05.132Z,95167.00
2024-05-09T02:16:05.127Z,95167.00
2024-05-09T02:17:05.163Z,95167.00
2024-05-09T02:18:05.310Z,95165.00
2024-05-09T02:19:05.264Z,95164.00
2024-05-09T02:20:06.167Z,95165.00
2024-05-09T02:21:05.262Z,95163.00
2024-05-09T02:22:05.131Z,95163.00
2024-05-09T02:23:05.570Z,95161.00
2024-05-09T02:24:05.136Z,95162.00
2024-05-09T02:25:05.145Z,95161.00
2024-05-09T02:26:05.205Z,95162.00
2024-05-09T02:27:05.150Z,95161.00
2024-05-09T02:28:05.143Z,95159.00
2024-05-09T02:29:05.156Z,95162.00
2024-05-09T02:30:09.933Z,95164.00
2024-05-09T02:31:06.148Z,95162.00
2024-05-09T02:32:05.206Z,95161.00
2024-05-09T02:33:05.289Z,95162.00
2024-05-09T02:34:05.330Z,95160.00
2024-05-09T02:35:05.178Z,95161.00
2024-05-09T02:36:05.146Z,95160.00
2024-05-09T02:37:05.147Z,95161.00
2024-05-09T02:38:05.270Z,95161.00
2024-05-09T02:39:05.148Z,95160.00
2024-05-09T02:40:05.760Z,95160.00
2024-05-09T02:41:05.185Z,95160.00
2024-05-09T02:42:05.143Z,95159.00
2024-05-09T02:43:05.393Z,95161.00
2024-05-09T02:44:05.180Z,95160.00
2024-05-09T02:45:05.158Z,95161.00
2024-05-09T02:46:05.159Z,95159.00
2024-05-09T02:47:05.236Z,95160.00
2024-05-09T02:48:05.373Z,95160.00
2024-05-09T02:49:05.206Z,95164.00
2024-05-09T02:50:07.757Z,95165.00
2024-05-09T02:51:05.241Z,95163.00
2024-05-09T02:52:05.157Z,95167.00
2024-05-09T02:53:05.278Z,95165.00
2024-05-09T02:54:05.174Z,95167.00
2024-05-09T02:55:05.150Z,95164.00
2024-05-09T02:56:05.190Z,95165.00
2024-05-09T02:57:05.150Z,95164.00
2024-05-09T02:58:05.150Z,95164.00
2024-05-09T02:59:05.214Z,95163.00
2024-05-09T03:00:07.660Z,95163.00
2024-05-09T03:01:05.419Z,95162.00
2024-05-09T03:02:05.550Z,95161.00
2024-05-09T03:03:05.699Z,95159.00
2024-05-09T03:04:05.655Z,95161.00
2024-05-09T03:05:05.580Z,95159.00
2024-05-09T03:06:05.652Z,95161.00
2024-05-09T03:07:05.653Z,95161.00
2024-05-09T03:08:05.714Z,95160.00
2024-05-09T03:09:05.666Z,95161.00
2024-05-09T03:10:11.890Z,95159.00
2024-05-09T03:11:06.789Z,95157.00
2024-05-09T03:12:05.860Z,95157.00
2024-05-09T03:13:05.695Z,95156.00
2024-05-09T03:14:05.689Z,95158.00
2024-05-09T03:15:05.683Z,95156.00
2024-05-09T03:16:05.680Z,95156.00
2024-05-09T03:17:05.690Z,95159.00
2024-05-09T03:18:06.058Z,95156.00
2024-05-09T03:19:05.791Z,95157.00
2024-05-09T03:20:09.135Z,95156.00
2024-05-09T03:21:06.761Z,95157.00
2024-05-09T03:22:05.744Z,95158.00
2024-05-09T03:23:06.265Z,95158.00
2024-05-09T03:24:05.682Z,95159.00
2024-05-09T03:25:05.682Z,95157.00
2024-05-09T03:26:05.720Z,95158.00
2024-05-09T03:27:05.688Z,95159.00
2024-05-09T03:28:05.693Z,95160.00
2024-05-09T03:29:05.763Z,95161.00
2024-05-09T03:30:07.619Z,95160.00
2024-05-09T03:31:05.710Z,95161.00
2024-05-09T03:32:05.753Z,95161.00
2024-05-09T03:33:05.863Z,95159.00
2024-05-09T03:34:05.996Z,95160.00
2024-05-09T03:35:05.766Z,95162.00
2024-05-09T03:36:08.965Z,95163.00
2024-05-09T03:37:05.751Z,95164.00
2024-05-09T03:38:05.783Z,95169.00
2024-05-09T03:39:05.748Z,95169.00
2024-05-09T03:40:09.323Z,95170.00
2024-05-09T03:41:06.774Z,95169.00
2024-05-09T03:42:05.766Z,95170.00
2024-05-09T03:43:05.748Z,95168.00
2024-05-09T03:44:05.832Z,95170.00
2024-05-09T03:45:05.746Z,95170.00
2024-05-09T03:46:05.751Z,95169.00
2024-05-09T03:47:05.800Z,95172.00
2024-05-09T03:48:05.831Z,95170.00
2024-05-09T03:49:05.823Z,95169.00
2024-05-09T03:50:06.042Z,95169.00
2024-05-09T03:51:05.876Z,95171.00
2024-05-09T03:52:05.744Z,95170.00
2024-05-09T03:53:05.797Z,95170.00
2024-05-09T03:54:05.752Z,95171.00
2024-05-09T03:55:05.759Z,95169.00
2024-05-09T03:56:05.803Z,95170.00
2024-05-09T03:57:05.758Z,95173.00
2024-05-09T03:58:05.759Z,95172.00
2024-05-09T03:59:05.782Z,95175.00
2024-05-09T04:00:09.696Z,95177.00
2024-05-09T04:01:06.813Z,95176.00
2024-05-09T04:02:05.807Z,95180.00
2024-05-09T04:03:07.617Z,95180.00
2024-05-09T04:04:05.804Z,95183.00
2024-05-09T04:05:05.842Z,95184.00
2024-05-09T04:06:05.782Z,95186.00
2024-05-09T04:07:05.770Z,95187.00
2024-05-09T04:08:05.920Z,95187.00
2024-05-09T04:09:05.782Z,95188.00
2024-05-09T04:10:08.885Z,95184.00
2024-05-09T04:11:05.978Z,95186.00
2024-05-09T04:12:05.818Z,95187.00
2024-05-09T04:13:05.861Z,95186.00
2024-05-09T04:14:05.892Z,95186.00
2024-05-09T04:15:13.758Z,95187.00
2024-05-09T04:16:13.566Z,95186.00
2024-05-09T04:17:13.639Z,95188.00
2024-05-09T04:18:13.615Z,95187.00
2024-05-09T04:19:13.664Z,95190.00
2024-05-09T04:20:24.170Z,95191.00
2024-05-09T04:21:14.621Z,95192.00
2024-05-09T04:22:13.588Z,95192.00
2024-05-09T04:23:14.234Z,95195.00
2024-05-09T04:24:13.557Z,95195.00
2024-05-09T04:25:13.556Z,95195.00
2024-05-09T04:26:13.575Z,95195.00
2024-05-09T04:27:13.557Z,95196.00
2024-05-09T04:28:13.580Z,95198.00
2024-05-09T04:29:13.582Z,95197.00
2024-05-09T04:30:21.623Z,95196.00
2024-05-09T04:31:26.108Z,95197.00
2024-05-09T04:32:26.225Z,95195.00
2024-05-09T04:33:26.220Z,95195.00
2024-05-09T04:34:26.219Z,95195.00
2024-05-09T04:35:26.310Z,95197.00
2024-05-09T04:36:26.112Z,95197.00
2024-05-09T04:37:26.125Z,95197.00
2024-05-09T04:38:26.129Z,95197.00
2024-05-09T04:39:26.108Z,95196.00
2024-05-09T04:40:33.052Z,95199.00
2024-05-09T04:41:27.190Z,95197.00
2024-05-09T04:42:26.108Z,95198.00
2024-05-09T04:43:26.104Z,95200.00
2024-05-09T04:44:26.234Z,95197.00
2024-05-09T04:45:26.105Z,95197.00
2024-05-09T04:46:26.106Z,95196.00
2024-05-09T04:47:26.272Z,95198.00
2024-05-09T04:48:26.210Z,95196.00
2024-05-09T04:49:26.293Z,95197.00
2024-05-09T04:50:35.247Z,95195.00
2024-05-09T04:51:27.127Z,95195.00
2024-05-09T04:52:26.127Z,95196.00
2024-05-09T04:53:26.194Z,95198.00
2024-05-09T04:54:34.009Z,95198.00
2024-05-09T04:55:27.141Z,95199.00
2024-05-09T04:56:26.208Z,95196.00
2024-05-09T04:57:26.137Z,95200.00
2024-05-09T04:58:26.188Z,95197.00
2024-05-09T04:59:26.296Z,95197.00
2024-05-09T05:00:34.436Z,95198.00
2024-05-09T05:01:27.193Z,95199.00
2024-05-09T05:02:26.236Z,95198.00
2024-05-09T05:03:26.282Z,95201.00
2024-05-09T05:04:26.226Z,95200.00
2024-05-09T05:05:26.197Z,95203.00
2024-05-09T05:06:26.142Z,95204.00
2024-05-09T05:07:26.164Z,95205.00
2024-05-09T05:08:26.157Z,95205.00
2024-05-09T05:09:26.151Z,95207.00
2024-05-09T05:10:33.566Z,95205.00
2024-05-09T05:11:27.249Z,95207.00
2024-05-09T05:12:26.255Z,95207.00
2024-05-09T05:13:26.150Z,95208.00
2024-05-09T05:14:26.224Z,95206.00
2024-05-09T05:15:26.152Z,95205.00
2024-05-09T05:16:26.154Z,95205.00
2024-05-09T05:17:26.244Z,95204.00
2024-05-09T05:18:26.491Z,95204.00
2024-05-09T05:19:26.322Z,95204.00
2024-05-09T05:20:32.593Z,95204.00
2024-05-09T05:21:27.327Z,95205.00
2024-05-09T05:22:26.172Z,95202.00
2024-05-09T05:23:26.227Z,95203.00
2024-05-09T05:24:26.168Z,95203.00
2024-05-09T05:25:26.232Z,95203.00
2024-05-09T05:26:26.252Z,95204.00
2024-05-09T05:27:26.194Z,95203.00
2024-05-09T05:28:26.230Z,95204.00
2024-05-09T05:29:26.201Z,95204.00
2024-05-09T05:30:29.350Z,95202.00
2024-05-09T05:31:27.272Z,95205.00
2024-05-09T05:32:26.307Z,95206.00
2024-05-09T05:33:26.311Z,95207.00
2024-05-09T05:34:26.190Z,95207.00
2024-05-09T05:35:26.326Z,95210.00
2024-05-09T05:36:26.199Z,95208.00
2024-05-09T05:37:26.184Z,95210.00
2024-05-09T05:38:28.308Z,95213.00
2024-05-09T05:39:26.389Z,95215.00
2024-05-09T05:40:33.296Z,95215.00
2024-05-09T05:41:27.570Z,95215.00
2024-05-09T05:42:26.448Z,95215.00
2024-05-09T05:43:26.444Z,95215.00
2024-05-09T05:44:26.470Z,95216.00
2024-05-09T05:45:26.445Z,95219.00
2024-05-09T05:46:26.445Z,95219.00
2024-05-09T05:47:26.611Z,95221.00
2024-05-09T05:48:26.581Z,95219.00
2024-05-09T05:49:26.623Z,95218.00
2024-05-09T05:50:32.597Z,95220.00
2024-05-09T05:51:27.568Z,95217.00
2024-05-09T05:52:26.580Z,95220.00
2024-05-09T05:53:26.591Z,95216.00
2024-05-09T05:54:26.567Z,95218.00
2024-05-09T05:55:26.567Z,95216.00
2024-05-09T05:56:26.647Z,95213.00
2024-05-09T05:57:26.572Z,95213.00
2024-05-09T05:58:26.579Z,95213.00
2024-05-09T05:59:26.669Z,95216.00
2024-05-09T06:00:34.378Z,95215.00
2024-05-09T06:01:27.769Z,95216.00
2024-05-09T06:02:26.801Z,95215.00
2024-05-09T06:03:26.808Z,95215.00
2024-05-09T06:04:26.707Z,95213.00
2024-05-09T06:05:27.746Z,95213.00
2024-05-09T06:06:26.686Z,95211.00
2024-05-09T06:07:26.689Z,95213.00
2024-05-09T06:08:30.162Z,95212.00
2024-05-09T06:09:26.695Z,95211.00
2024-05-09T06:10:35.052Z,95213.00
2024-05-09T06:11:27.748Z,95213.00
2024-05-09T06:12:26.827Z,95211.00
2024-05-09T06:13:26.700Z,95210.00
2024-05-09T06:14:26.867Z,95212.00
2024-05-09T06:15:26.697Z,95210.00
2024-05-09T06:16:26.693Z,95209.00
2024-05-09T06:17:26.819Z,95207.00
2024-05-09T06:18:26.993Z,95206.00
2024-05-09T06:19:26.879Z,95206.00
2024-05-09T06:20:34.766Z,95204.00
2024-05-09T06:21:27.878Z,95206.00
2024-05-09T06:22:26.828Z,95204.00
2024-05-09T06:23:26.884Z,95205.00
2024-05-09T06:24:26.828Z,95205.00
2024-05-09T06:25:26.824Z,95203.00
2024-05-09T06:26:26.899Z,95202.00
2024-05-09T06:27:26.829Z,95200.00
2024-05-09T06:28:26.831Z,95198.00
2024-05-09T06:29:27.028Z,95198.00
2024-05-09T06:30:35.323Z,95196.00
2024-05-09T06:31:27.838Z,95196.00
2024-05-09T06:32:27.095Z,95195.00
2024-05-09T06:33:27.060Z,95197.00
2024-05-09T06:34:27.098Z,95197.00
2024-05-09T06:35:26.856Z,95195.00
2024-05-09T06:36:26.841Z,95194.00
2024-05-09T06:37:26.842Z,95194.00
2024-05-09T06:38:26.882Z,95192.00
2024-05-09T06:39:26.843Z,95193.00
2024-05-09T06:40:35.768Z,95192.00
2024-05-09T06:41:27.999Z,95192.00
2024-05-09T06:42:26.852Z,95193.00
2024-05-09T06:43:26.903Z,95195.00
2024-05-09T06:44:26.889Z,95193.00
2024-05-09T06:45:26.848Z,95196.00
2024-05-09T06:46:26.837Z,95194.00
2024-05-09T06:47:26.999Z,95196.00
2024-05-09T06:48:26.984Z,95196.00
2024-05-09T06:49:26.949Z,95197.00
2024-05-09T06:50:28.432Z,95200.00
2024-05-09T06:51:26.856Z,95201.00
2024-05-09T06:52:26.851Z,95201.00
2024-05-09T06:53:26.957Z,95201.00
2024-05-09T06:54:26.846Z,95203.00
2024-05-09T06:55:26.849Z,95201.00
2024-05-09T06:56:26.911Z,95202.00
2024-05-09T06:57:26.844Z,95200.00
2024-05-09T06:58:26.870Z,95200.00
2024-05-09T06:59:26.898Z,95198.00
2024-05-09T07:00:34.621Z,95202.00
2024-05-09T07:01:27.935Z,95201.00
2024-05-09T07:02:26.934Z,95201.00
2024-05-09T07:03:27.037Z,95201.00
2024-05-09T07:04:26.936Z,95201.00
2024-05-09T07:05:27.025Z,95203.00
2024-05-09T07:06:26.879Z,95202.00
2024-05-09T07:07:26.859Z,95203.00
2024-05-09T07:08:26.898Z,95204.00
2024-05-09T07:09:26.858Z,95205.00
2024-05-09T07:10:32.891Z,95202.00
2024-05-09T07:11:27.928Z,95205.00
2024-05-09T07:12:26.919Z,95202.00
2024-05-09T07:13:26.876Z,95200.00
2024-05-09T07:14:26.923Z,95200.00
2024-05-09T07:15:26.880Z,95198.00
2024-05-09T07:16:26.882Z,95201.00
2024-05-09T07:17:27.123Z,95201.00
2024-05-09T07:18:26.972Z,95198.00
2024-05-09T07:19:26.922Z,95197.00
2024-05-09T07:20:33.992Z,95198.00
2024-05-09T07:21:27.882Z,95197.00
2024-05-09T07:22:26.881Z,95197.00
2024-05-09T07:23:26.901Z,95196.00
2024-05-09T07:24:26.910Z,95193.00
2024-05-09T07:25:26.892Z,95194.00
2024-05-09T07:26:26.954Z,95192.00
2024-05-09T07:27:27.817Z,95193.00
2024-05-09T07:28:26.906Z,95190.00
2024-05-09T07:29:27.096Z,95191.00
2024-05-09T07:30:31.023Z,95190.00
2024-05-09T07:31:27.906Z,95189.00
2024-05-09T07:32:27.116Z,95190.00
2024-05-09T07:33:27.200Z,95187.00
2024-05-09T07:34:27.051Z,95188.00
2024-05-09T07:35:27.180Z,95188.00
2024-05-09T07:36:26.913Z,95186.00
2024-05-09T07:37:26.915Z,95189.00
2024-05-09T07:38:26.974Z,95187.00
2024-05-09T07:39:26.897Z,95188.00
2024-05-09T07:40:33.298Z,95185.00
2024-05-09T07:41:27.949Z,95183.00
2024-05-09T07:42:26.920Z,95183.00
2024-05-09T07:43:26.908Z,95184.00
2024-05-09T07:44:26.954Z,95184.00
2024-05-09T07:45:44.913Z,95181.00
2024-05-09T07:47:36.840Z,95182.00
2024-05-09T07:50:00.631Z,95181.00
2024-05-09T07:53:32.308Z,95178.00
2024-05-09T07:53:39.860Z,95178.00
2024-05-09T07:54:28.083Z,95176.00
2024-05-09T07:55:27.082Z,95178.00
2024-05-09T07:56:27.376Z,95175.00
2024-05-09T07:57:26.950Z,95176.00
2024-05-09T07:58:26.982Z,95175.00
2024-05-09T07:59:26.932Z,95171.00
2024-05-09T08:00:31.195Z,95170.00
2024-05-09T08:01:28.065Z,95169.00
2024-05-09T08:02:27.045Z,95167.00
2024-05-09T08:03:27.050Z,95167.00
2024-05-09T08:04:27.066Z,95167.00
2024-05-09T08:05:27.039Z,95167.00
2024-05-09T08:06:27.040Z,95167.00
2024-05-09T08:07:26.947Z,95167.00
2024-05-09T08:08:26.994Z,95165.00
2024-05-09T08:09:26.973Z,95166.00
2024-05-09T08:10:28.990Z,95166.00
2024-05-09T08:11:26.993Z,95166.00
2024-05-09T08:12:26.961Z,95166.00
2024-05-09T08:13:26.977Z,95165.00
2024-05-09T08:14:26.977Z,95164.00
2024-05-09T08:15:27.044Z,95165.00
2024-05-09T08:16:27.078Z,95163.00
2024-05-09T08:17:27.139Z,95163.00
2024-05-09T08:18:27.175Z,95162.00
2024-05-09T08:19:27.043Z,95161.00
2024-05-09T08:20:31.276Z,95160.00
2024-05-09T08:21:28.072Z,95157.00
2024-05-09T08:22:27.034Z,95156.00
2024-05-09T08:23:27.039Z,95157.00
2024-05-09T08:24:27.092Z,95155.00
2024-05-09T08:25:27.213Z,95156.00
2024-05-09T08:26:27.243Z,95156.00
2024-05-09T08:27:27.089Z,95155.00
2024-05-09T08:28:27.119Z,95154.00
2024-05-09T08:29:27.035Z,95155.00
2024-05-09T08:30:33.530Z,95152.00
2024-05-09T08:31:28.210Z,95152.00
2024-05-09T08:32:27.166Z,95151.00
2024-05-09T08:33:27.247Z,95150.00
2024-05-09T08:34:27.172Z,95145.00
2024-05-09T08:35:27.104Z,95146.00
2024-05-09T08:36:27.120Z,95147.00
2024-05-09T08:37:31.064Z,95147.00
2024-05-09T08:38:28.126Z,95145.00
2024-05-09T08:39:27.143Z,95144.00
2024-05-09T08:40:34.043Z,95143.00
2024-05-09T08:41:28.135Z,95143.00
2024-05-09T08:42:27.172Z,95146.00
2024-05-09T08:43:27.247Z,95145.00
2024-05-09T08:44:27.130Z,95145.00
2024-05-09T08:45:27.277Z,95146.00
2024-05-09T08:46:27.262Z,95142.00
2024-05-09T08:47:27.240Z,95144.00
2024-05-09T08:48:27.243Z,95144.00
2024-05-09T08:49:27.179Z,95143.00
2024-05-09T08:50:35.492Z,95145.00
2024-05-09T08:51:28.219Z,95147.00
2024-05-09T08:52:27.138Z,95145.00
2024-05-09T08:53:27.147Z,95145.00
2024-05-09T08:54:27.259Z,95146.00
2024-05-09T08:55:27.173Z,95149.00
2024-05-09T08:56:27.152Z,95146.00
2024-05-09T08:57:27.222Z,95146.00
2024-05-09T08:58:27.190Z,95145.00
2024-05-09T08:59:27.141Z,95146.00
2024-05-09T09:00:34.145Z,95143.00
2024-05-09T09:01:28.256Z,95144.00
2024-05-09T09:02:27.353Z,95143.00
2024-05-09T09:03:27.417Z,95143.00
2024-05-09T09:04:27.259Z,95141.00
2024-05-09T09:05:27.610Z,95141.00
2024-05-09T09:06:27.203Z,95140.00
2024-05-09T09:07:27.315Z,95136.00
2024-05-09T09:08:27.156Z,95134.00
2024-05-09T09:09:27.267Z,95134.00
2024-05-09T09:10:32.012Z,95133.00
2024-05-09T09:11:28.181Z,95133.00
2024-05-09T09:12:27.220Z,95131.00
2024-05-09T09:13:27.170Z,95131.00
2024-05-09T09:14:27.163Z,95129.00
2024-05-09T09:15:27.268Z,95129.00
2024-05-09T09:16:27.223Z,95130.00
2024-05-09T09:17:27.226Z,95128.00
2024-05-09T09:18:27.496Z,95130.00
2024-05-09T09:19:27.292Z,95128.00
2024-05-09T09:20:33.996Z,95130.00
2024-05-09T09:21:28.207Z,95130.00
2024-05-09T09:22:27.169Z,95130.00
2024-05-09T09:23:27.172Z,95128.00
2024-05-09T09:24:27.287Z,95128.00
2024-05-09T09:25:27.200Z,95127.00
2024-05-09T09:26:27.173Z,95124.00
2024-05-09T09:27:27.258Z,95122.00
2024-05-09T09:28:27.176Z,95123.00
2024-05-09T09:29:27.176Z,95123.00
2024-05-09T09:30:35.024Z,95121.00
2024-05-09T09:31:28.265Z,95118.00
2024-05-09T09:32:27.241Z,95119.00
2024-05-09T09:33:27.322Z,95115.00
2024-05-09T09:34:27.288Z,95115.00
2024-05-09T09:35:27.179Z,95115.00
2024-05-09T09:36:27.201Z,95113.00
2024-05-09T09:37:27.175Z,95110.00
2024-05-09T09:38:27.176Z,95107.00
2024-05-09T09:39:27.223Z,95108.00
2024-05-09T09:40:31.992Z,95106.00
2024-05-09T09:41:28.193Z,95106.00
2024-05-09T09:42:27.223Z,95103.00
2024-05-09T09:43:27.276Z,95106.00
2024-05-09T09:44:27.178Z,95102.00
2024-05-09T09:45:27.311Z,95098.00
2024-05-09T09:46:27.239Z,95098.00
2024-05-09T09:47:27.296Z,95096.00
2024-05-09T09:48:27.218Z,95096.00
2024-05-09T09:49:27.205Z,95093.00
2024-05-09T09:50:33.205Z,95093.00
2024-05-09T09:51:28.225Z,95090.00
2024-05-09T09:52:27.244Z,95089.00
2024-05-09T09:53:27.192Z,95088.00
2024-05-09T09:54:27.242Z,95084.00
2024-05-09T09:55:27.277Z,95084.00
2024-05-09T09:56:27.186Z,95084.00
2024-05-09T09:57:27.279Z,95084.00
2024-05-09T09:58:27.319Z,95079.00
2024-05-09T09:59:27.188Z,95078.00
2024-05-09T10:00:32.452Z,95079.00
2024-05-09T10:01:28.304Z,95076.00
2024-05-09T10:02:27.315Z,95076.00
2024-05-09T10:03:27.474Z,95074.00
2024-05-09T10:04:27.489Z,95073.00
2024-05-09T10:05:27.453Z,95073.00
2024-05-09T10:06:27.196Z,95072.00
2024-05-09T10:07:27.202Z,95071.00
2024-05-09T10:08:27.199Z,95071.00
2024-05-09T10:09:27.251Z,95066.00
2024-05-09T10:10:32.099Z,95067.00
2024-05-09T10:11:28.254Z,95065.00
2024-05-09T10:12:27.241Z,95064.00
2024-05-09T10:13:27.239Z,95066.00
2024-05-09T10:14:27.207Z,95057.00
2024-05-09T10:15:27.341Z,95059.00
2024-05-09T10:16:27.324Z,95059.00
2024-05-09T10:17:27.297Z,95059.00
2024-05-09T10:18:29.560Z,95054.00
2024-05-09T10:19:27.360Z,95051.00
2024-05-09T10:20:30.919Z,95050.00
2024-05-09T10:21:28.254Z,95047.00
2024-05-09T10:22:27.252Z,95046.00
2024-05-09T10:23:27.228Z,95045.00
2024-05-09T10:24:27.278Z,95048.00
2024-05-09T10:25:27.286Z,95044.00
2024-05-09T10:26:27.219Z,95045.00
2024-05-09T10:27:27.345Z,95046.00
2024-05-09T10:28:27.210Z,95042.00
2024-05-09T10:29:27.211Z,95042.00
2024-05-09T10:30:34.014Z,95042.00
2024-05-09T10:31:28.259Z,95039.00
2024-05-09T10:32:27.271Z,95043.00
2024-05-09T10:33:27.344Z,95041.00
2024-05-09T10:34:27.285Z,95039.00
2024-05-09T10:35:27.231Z,95036.00
2024-05-09T10:36:27.313Z,95036.00
2024-05-09T10:37:27.298Z,95033.00
2024-05-09T10:38:27.223Z,95034.00
2024-05-09T10:39:27.338Z,95031.00
2024-05-09T10:40:31.247Z,95027.00
2024-05-09T10:41:27.227Z,95027.00
2024-05-09T10:42:27.325Z,95024.00
2024-05-09T10:43:27.271Z,95022.00
2024-05-09T10:44:27.251Z,95020.00
2024-05-09T10:45:27.257Z,95020.00
2024-05-09T10:46:27.268Z,95016.00
2024-05-09T10:47:27.411Z,95014.00
2024-05-09T10:48:27.328Z,95016.00
2024-05-09T10:49:27.283Z,95016.00
2024-05-09T10:50:31.829Z,95013.00
2024-05-09T10:51:28.300Z,95015.00
2024-05-09T10:52:27.275Z,95013.00
2024-05-09T10:53:27.240Z,95011.00
2024-05-09T10:54:27.350Z,95008.00
2024-05-09T10:55:27.245Z,95008.00
2024-05-09T10:56:27.241Z,95008.00
2024-05-09T10:57:27.312Z,95008.00
2024-05-09T10:58:27.227Z,95009.00
2024-05-09T10:59:27.236Z,95010.00
2024-05-09T11:00:33.215Z,95009.00
2024-05-09T11:01:28.341Z,95009.00
2024-05-09T11:02:27.348Z,95006.00
2024-05-09T11:03:27.333Z,95007.00
2024-05-09T11:04:27.381Z,95007.00
2024-05-09T11:05:27.531Z,95004.00
2024-05-09T11:06:27.330Z,95001.00
2024-05-09T11:07:27.261Z,95001.00
2024-05-09T11:08:27.255Z,95000.00
2024-05-09T11:09:27.240Z,95000.00
2024-05-09T11:10:33.602Z,94996.00
2024-05-09T11:11:28.268Z,94999.00
2024-05-09T11:12:27.246Z,94996.00
2024-05-09T11:13:27.268Z,94993.00
2024-05-09T11:14:27.247Z,94998.00
2024-05-09T11:15:27.242Z,94997.00
2024-05-09T11:16:27.304Z,94994.00
2024-05-09T11:17:27.452Z,94998.00
2024-05-09T11:18:29.738Z,94998.00
2024-05-09T11:19:27.448Z,94994.00
2024-05-09T11:20:29.908Z,94992.00
2024-05-09T11:21:27.275Z,94989.00
2024-05-09T11:22:27.303Z,94987.00
2024-05-09T11:23:27.308Z,94993.00
2024-05-09T11:24:27.279Z,94985.00
2024-05-09T11:25:27.257Z,94984.00
2024-05-09T11:26:27.262Z,94984.00
2024-05-09T11:27:27.266Z,94984.00
2024-05-09T11:28:27.324Z,94983.00
2024-05-09T11:29:27.271Z,94979.00
2024-05-09T11:30:31.838Z,94975.00
2024-05-09T11:31:28.418Z,94976.00
2024-05-09T11:32:27.365Z,94975.00
2024-05-09T11:33:27.294Z,94975.00
2024-05-09T11:34:27.378Z,94973.00
2024-05-09T11:35:27.277Z,94973.00
2024-05-09T11:36:27.303Z,94974.00
2024-05-09T11:37:27.358Z,94970.00
2024-05-09T11:38:27.270Z,94970.00
2024-05-09T11:39:27.419Z,94969.00
2024-05-09T11:40:32.391Z,94970.00
2024-05-09T11:41:28.275Z,94971.00
2024-05-09T11:42:27.274Z,94969.00
2024-05-09T11:43:27.348Z,94970.00
2024-05-09T11:44:27.277Z,94964.00
2024-05-09T11:45:27.285Z,94968.00
2024-05-09T11:46:27.354Z,94965.00
2024-05-09T11:47:27.356Z,94965.00
2024-05-09T11:48:27.763Z,94964.00